sensor_id;sensor_type;location;lat;lon;timestamp;pressure;altitude;pressure_sealevel;temperature;humidity
5691;BME280;2870;42.680;23.364;2023-06-05T00:01:59;95569.72;;;16.29;100.00
5691;BME280;2870;42.680;23.364;2023-06-05T00:04:26;95571.53;;;16.34;100.00
5691;BME280;2870;42.680;23.364;2023-06-05T00:06:54;95569.72;;;16.29;100.00
5691;BME280;2870;42.680;23.364;2023-06-05T00:09:21;95567.19;;;16.33;100.00
5691;BME280;2870;42.680;23.364;2023-06-05T00:11:48;95566.88;;;16.29;100.00
5691;BME280;2870;42.680;23.364;2023-06-05T00:14:15;95565.97;;;16.27;100.00
5691;BME280;2870;42.680;23.364;2023-06-05T00:16:42;95560.91;;;16.25;100.00
5691;BME280;2870;42.680;23.364;2023-06-05T00:19:10;95565.53;;;16.30;100.00
5691;BME280;2870;42.680;23.364;2023-06-05T00:21:37;95572.66;;;16.22;100.00
5691;BME280;2870;42.680;23.364;2023-06-05T00:24:05;95571.59;;;16.17;100.00
5691;BME280;2870;42.680;23.364;2023-06-05T00:26:32;95574.56;;;16.19;100.00
5691;BME280;2870;42.680;23.364;2023-06-05T00:28:58;95569.06;;;16.21;100.00
5691;BME280;2870;42.680;23.364;2023-06-05T00:31:25;95563.38;;;16.11;100.00
5691;BME280;2870;42.680;23.364;2023-06-05T00:33:52;95566.34;;;16.13;100.00
5691;BME280;2870;42.680;23.364;2023-06-05T00:36:21;95571.28;;;16.13;100.00
5691;BME280;2870;42.680;23.364;2023-06-05T00:38:48;95569.94;;;16.14;100.00
5691;BME280;2870;42.680;23.364;2023-06-05T00:41:15;95569.03;;;16.11;100.00
5691;BME280;2870;42.680;23.364;2023-06-05T00:43:42;95573.91;;;16.11;100.00
5691;BME280;2870;42.680;23.364;2023-06-05T00:46:09;95568.84;;;16.09;100.00
5691;BME280;2870;42.680;23.364;2023-06-05T00:48:36;95564.38;;;16.06;100.00
5691;BME280;2870;42.680;23.364;2023-06-05T00:51:04;95558.13;;;16.08;100.00
5691;BME280;2870;42.680;23.364;2023-06-05T00:53:34;95556.63;;;16.07;100.00
5691;BME280;2870;42.680;23.364;2023-06-05T00:56:02;95545.63;;;16.11;100.00
5691;BME280;2870;42.680;23.364;2023-06-05T00:58:29;95541.78;;;16.16;100.00
5691;BME280;2870;42.680;23.364;2023-06-05T01:00:57;95546.97;;;16.10;100.00
5691;BME280;2870;42.680;23.364;2023-06-05T01:03:25;95541.81;;;15.99;100.00
5691;BME280;2870;42.680;23.364;2023-06-05T01:05:54;95537.69;;;16.00;100.00
5691;BME280;2870;42.680;23.364;2023-06-05T01:08:29;95547.19;;;15.95;100.00
5691;BME280;2870;42.680;23.364;2023-06-05T01:11:09;95544.66;;;15.99;100.00
5691;BME280;2870;42.680;23.364;2023-06-05T01:13:41;95539.94;;;16.01;100.00
5691;BME280;2870;42.680;23.364;2023-06-05T01:16:09;95551.66;;;15.98;100.00
5691;BME280;2870;42.680;23.364;2023-06-05T01:18:37;95550.91;;;15.97;100.00
5691;BME280;2870;42.680;23.364;2023-06-05T01:21:11;95547.50;;;15.99;100.00
5691;BME280;2870;42.680;23.364;2023-06-05T01:23:41;95541.19;;;15.90;100.00
5691;BME280;2870;42.680;23.364;2023-06-05T01:26:15;95536.88;;;15.89;100.00
5691;BME280;2870;42.680;23.364;2023-06-05T01:28:46;95531.22;;;15.89;100.00
5691;BME280;2870;42.680;23.364;2023-06-05T01:31:16;95527.47;;;15.87;100.00
5691;BME280;2870;42.680;23.364;2023-06-05T01:33:50;95530.00;;;15.83;100.00
5691;BME280;2870;42.680;23.364;2023-06-05T01:36:22;95521.25;;;15.71;100.00
5691;BME280;2870;42.680;23.364;2023-06-05T01:38:52;95530.06;;;15.75;100.00
5691;BME280;2870;42.680;23.364;2023-06-05T01:41:21;95508.72;;;15.64;100.00
5691;BME280;2870;42.680;23.364;2023-06-05T01:43:49;95526.50;;;15.75;100.00
5691;BME280;2870;42.680;23.364;2023-06-05T01:46:18;95525.44;;;15.70;100.00
5691;BME280;2870;42.680;23.364;2023-06-05T01:48:46;95507.41;;;15.66;100.00
5691;BME280;2870;42.680;23.364;2023-06-05T01:51:13;95509.78;;;15.69;100.00
5691;BME280;2870;42.680;23.364;2023-06-05T01:53:40;95518.44;;;15.71;100.00
5691;BME280;2870;42.680;23.364;2023-06-05T01:56:08;95511.88;;;15.69;100.00
5691;BME280;2870;42.680;23.364;2023-06-05T01:58:36;95516.63;;;15.66;100.00
5691;BME280;2870;42.680;23.364;2023-06-05T02:01:03;95526.44;;;15.65;100.00
5691;BME280;2870;42.680;23.364;2023-06-05T02:03:30;95517.19;;;15.64;100.00
5691;BME280;2870;42.680;23.364;2023-06-05T02:05:57;95516.78;;;15.68;100.00
5691;BME280;2870;42.680;23.364;2023-06-05T02:08:24;95519.69;;;15.60;100.00
5691;BME280;2870;42.680;23.364;2023-06-05T02:10:53;95522.34;;;15.58;100.00
5691;BME280;2870;42.680;23.364;2023-06-05T02:13:22;95525.00;;;15.56;100.00
5691;BME280;2870;42.680;23.364;2023-06-05T02:15:50;95520.22;;;15.49;100.00
5691;BME280;2870;42.680;23.364;2023-06-05T02:18:21;95531.81;;;15.53;100.00
5691;BME280;2870;42.680;23.364;2023-06-05T02:20:53;95517.88;;;15.55;100.00
5691;BME280;2870;42.680;23.364;2023-06-05T02:23:20;95519.03;;;15.52;100.00
5691;BME280;2870;42.680;23.364;2023-06-05T02:25:47;95523.78;;;15.50;100.00
5691;BME280;2870;42.680;23.364;2023-06-05T02:28:14;95523.44;;;15.46;100.00
5691;BME280;2870;42.680;23.364;2023-06-05T02:30:42;95519.28;;;15.47;100.00
5691;BME280;2870;42.680;23.364;2023-06-05T02:33:10;95522.09;;;15.47;100.00
5691;BME280;2870;42.680;23.364;2023-06-05T02:35:37;95520.63;;;15.46;100.00
5691;BME280;2870;42.680;23.364;2023-06-05T02:38:06;95519.13;;;15.45;100.00
5691;BME280;2870;42.680;23.364;2023-06-05T02:40:32;95517.44;;;15.42;100.00
5691;BME280;2870;42.680;23.364;2023-06-05T02:42:59;95514.81;;;15.44;100.00
5691;BME280;2870;42.680;23.364;2023-06-05T02:45:26;95512.53;;;15.42;100.00
5691;BME280;2870;42.680;23.364;2023-06-05T02:47:55;95514.63;;;15.42;100.00
5691;BME280;2870;42.680;23.364;2023-06-05T02:50:22;95527.59;;;15.45;100.00
5691;BME280;2870;42.680;23.364;2023-06-05T02:52:49;95524.28;;;15.38;100.00
5691;BME280;2870;42.680;23.364;2023-06-05T02:55:16;95525.94;;;15.42;100.00
5691;BME280;2870;42.680;23.364;2023-06-05T02:57:43;95528.94;;;15.44;100.00
5691;BME280;2870;42.680;23.364;2023-06-05T03:00:11;95522.34;;;15.41;100.00
5691;BME280;2870;42.680;23.364;2023-06-05T03:02:41;95519.78;;;15.53;100.00
5691;BME280;2870;42.680;23.364;2023-06-05T03:05:15;95521.25;;;15.54;100.00
5691;BME280;2870;42.680;23.364;2023-06-05T03:07:42;95505.59;;;15.43;100.00
5691;BME280;2870;42.680;23.364;2023-06-05T03:10:10;95529.19;;;15.55;100.00
5691;BME280;2870;42.680;23.364;2023-06-05T03:12:37;95530.00;;;15.48;100.00
5691;BME280;2870;42.680;23.364;2023-06-05T03:15:05;95540.41;;;15.63;100.00
5691;BME280;2870;42.680;23.364;2023-06-05T03:17:33;95537.41;;;15.61;100.00
5691;BME280;2870;42.680;23.364;2023-06-05T03:19:59;95534.34;;;15.49;100.00
5691;BME280;2870;42.680;23.364;2023-06-05T03:22:28;95539.41;;;15.51;100.00
5691;BME280;2870;42.680;23.364;2023-06-05T03:24:55;95533.41;;;15.47;100.00
5691;BME280;2870;42.680;23.364;2023-06-05T03:27:23;95541.50;;;15.50;100.00
5691;BME280;2870;42.680;23.364;2023-06-05T03:29:50;95542.56;;;15.55;100.00
5691;BME280;2870;42.680;23.364;2023-06-05T03:32:17;95543.88;;;15.54;100.00
5691;BME280;2870;42.680;23.364;2023-06-05T03:34:44;95544.06;;;15.56;100.00
5691;BME280;2870;42.680;23.364;2023-06-05T03:37:14;95543.47;;;15.57;100.00
5691;BME280;2870;42.680;23.364;2023-06-05T03:39:42;95552.88;;;15.60;100.00
5691;BME280;2870;42.680;23.364;2023-06-05T03:42:09;95557.38;;;15.63;100.00
5691;BME280;2870;42.680;23.364;2023-06-05T03:44:36;95546.22;;;15.65;100.00
5691;BME280;2870;42.680;23.364;2023-06-05T03:47:03;95546.06;;;15.63;100.00
5691;BME280;2870;42.680;23.364;2023-06-05T03:49:30;95553.44;;;15.58;100.00
5691;BME280;2870;42.680;23.364;2023-06-05T03:51:57;95565.00;;;15.70;100.00
5691;BME280;2870;42.680;23.364;2023-06-05T03:54:26;95555.38;;;15.73;100.00
5691;BME280;2870;42.680;23.364;2023-06-05T03:56:54;95553.63;;;15.78;100.00
5691;BME280;2870;42.680;23.364;2023-06-05T03:59:23;95556.00;;;15.81;100.00
5691;BME280;2870;42.680;23.364;2023-06-05T04:01:51;95554.69;;;15.82;100.00
5691;BME280;2870;42.680;23.364;2023-06-05T04:04:18;95544.66;;;15.72;100.00
5691;BME280;2870;42.680;23.364;2023-06-05T04:06:45;95566.66;;;15.90;100.00
5691;BME280;2870;42.680;23.364;2023-06-05T04:09:13;95557.50;;;16.00;100.00
5691;BME280;2870;42.680;23.364;2023-06-05T04:11:40;95553.81;;;16.07;100.00
5691;BME280;2870;42.680;23.364;2023-06-05T04:14:09;95551.00;;;16.16;100.00
5691;BME280;2870;42.680;23.364;2023-06-05T04:16:37;95551.34;;;16.21;100.00
5691;BME280;2870;42.680;23.364;2023-06-05T04:19:05;95556.59;;;16.24;100.00
5691;BME280;2870;42.680;23.364;2023-06-05T04:21:32;95560.97;;;16.35;100.00
5691;BME280;2870;42.680;23.364;2023-06-05T04:24:01;95558.91;;;16.45;100.00
5691;BME280;2870;42.680;23.364;2023-06-05T04:26:32;95564.88;;;16.49;100.00
5691;BME280;2870;42.680;23.364;2023-06-05T04:28:58;95567.16;;;16.51;100.00
5691;BME280;2870;42.680;23.364;2023-06-05T04:31:30;95567.44;;;16.55;100.00
5691;BME280;2870;42.680;23.364;2023-06-05T04:33:57;95569.56;;;16.64;100.00
5691;BME280;2870;42.680;23.364;2023-06-05T04:36:27;95563.16;;;16.63;100.00
5691;BME280;2870;42.680;23.364;2023-06-05T04:38:54;95562.63;;;16.75;100.00
5691;BME280;2870;42.680;23.364;2023-06-05T04:41:21;95552.66;;;16.83;100.00
5691;BME280;2870;42.680;23.364;2023-06-05T04:43:48;95552.22;;;16.87;100.00
5691;BME280;2870;42.680;23.364;2023-06-05T04:46:15;95551.19;;;16.92;100.00
5691;BME280;2870;42.680;23.364;2023-06-05T04:48:43;95556.41;;;16.95;100.00
5691;BME280;2870;42.680;23.364;2023-06-05T04:51:11;95546.59;;;17.06;100.00
5691;BME280;2870;42.680;23.364;2023-06-05T04:53:38;95560.16;;;16.98;100.00
5691;BME280;2870;42.680;23.364;2023-06-05T04:56:07;95559.88;;;17.04;100.00
5691;BME280;2870;42.680;23.364;2023-06-05T04:58:34;95559.91;;;17.23;100.00
5691;BME280;2870;42.680;23.364;2023-06-05T05:01:01;95566.78;;;17.20;100.00
5691;BME280;2870;42.680;23.364;2023-06-05T05:03:31;95556.69;;;16.90;100.00
5691;BME280;2870;42.680;23.364;2023-06-05T05:06:00;95564.34;;;17.07;100.00
5691;BME280;2870;42.680;23.364;2023-06-05T05:08:27;95558.13;;;17.28;100.00
5691;BME280;2870;42.680;23.364;2023-06-05T05:10:54;95554.09;;;17.31;100.00
5691;BME280;2870;42.680;23.364;2023-06-05T05:13:20;95536.50;;;17.32;100.00
5691;BME280;2870;42.680;23.364;2023-06-05T05:15:47;95545.16;;;17.54;100.00
5691;BME280;2870;42.680;23.364;2023-06-05T05:18:18;95551.13;;;17.48;100.00
5691;BME280;2870;42.680;23.364;2023-06-05T05:20:45;95551.44;;;17.81;100.00
5691;BME280;2870;42.680;23.364;2023-06-05T05:23:13;95559.78;;;17.89;100.00
5691;BME280;2870;42.680;23.364;2023-06-05T05:25:41;95558.13;;;17.86;100.00
5691;BME280;2870;42.680;23.364;2023-06-05T05:28:07;95560.09;;;17.73;100.00
5691;BME280;2870;42.680;23.364;2023-06-05T05:30:35;95546.03;;;17.85;100.00
5691;BME280;2870;42.680;23.364;2023-06-05T05:33:02;95552.88;;;18.11;100.00
5691;BME280;2870;42.680;23.364;2023-06-05T05:35:29;95555.72;;;18.21;100.00
5691;BME280;2870;42.680;23.364;2023-06-05T05:37:57;95564.06;;;18.19;100.00
5691;BME280;2870;42.680;23.364;2023-06-05T05:40:26;95564.78;;;18.39;100.00
5691;BME280;2870;42.680;23.364;2023-06-05T05:42:52;95563.13;;;18.36;100.00
5691;BME280;2870;42.680;23.364;2023-06-05T05:45:19;95557.34;;;18.65;100.00
5691;BME280;2870;42.680;23.364;2023-06-05T05:47:46;95560.34;;;18.67;100.00
5691;BME280;2870;42.680;23.364;2023-06-05T05:50:13;95549.75;;;18.89;100.00
5691;BME280;2870;42.680;23.364;2023-06-05T05:52:39;95554.19;;;18.70;100.00
5691;BME280;2870;42.680;23.364;2023-06-05T05:55:08;95549.75;;;18.58;100.00
5691;BME280;2870;42.680;23.364;2023-06-05T05:57:37;95549.56;;;18.75;100.00
5691;BME280;2870;42.680;23.364;2023-06-05T06:00:05;95534.56;;;18.84;100.00
5691;BME280;2870;42.680;23.364;2023-06-05T06:02:37;95542.56;;;18.97;99.46
5691;BME280;2870;42.680;23.364;2023-06-05T06:05:05;95541.56;;;19.36;97.68
5691;BME280;2870;42.680;23.364;2023-06-05T06:07:32;95541.41;;;19.55;96.30
5691;BME280;2870;42.680;23.364;2023-06-05T06:09:58;95545.00;;;19.77;93.96
5691;BME280;2870;42.680;23.364;2023-06-05T06:12:25;95554.47;;;19.91;93.41
5691;BME280;2870;42.680;23.364;2023-06-05T06:14:54;95551.38;;;19.66;90.55
5691;BME280;2870;42.680;23.364;2023-06-05T06:17:21;95554.75;;;20.07;89.99
5691;BME280;2870;42.680;23.364;2023-06-05T06:19:49;95547.94;;;20.00;88.47
5691;BME280;2870;42.680;23.364;2023-06-05T06:22:16;95548.94;;;19.72;88.53
5691;BME280;2870;42.680;23.364;2023-06-05T06:24:44;95555.75;;;19.78;88.34
5691;BME280;2870;42.680;23.364;2023-06-05T06:27:11;95550.00;;;19.88;88.19
5691;BME280;2870;42.680;23.364;2023-06-05T06:29:47;95554.13;;;20.53;87.37
5691;BME280;2870;42.680;23.364;2023-06-05T06:32:16;95544.25;;;20.54;86.46
5691;BME280;2870;42.680;23.364;2023-06-05T06:34:43;95537.53;;;20.85;83.32
5691;BME280;2870;42.680;23.364;2023-06-05T06:37:10;95553.53;;;20.90;84.13
5691;BME280;2870;42.680;23.364;2023-06-05T06:39:37;95545.00;;;20.67;84.28
5691;BME280;2870;42.680;23.364;2023-06-05T06:42:05;95548.56;;;21.02;82.47
5691;BME280;2870;42.680;23.364;2023-06-05T06:44:32;95542.63;;;20.98;81.84
5691;BME280;2870;42.680;23.364;2023-06-05T06:46:58;95549.56;;;21.18;80.79
5691;BME280;2870;42.680;23.364;2023-06-05T06:49:27;95539.38;;;21.15;81.01
5691;BME280;2870;42.680;23.364;2023-06-05T06:51:53;95534.78;;;21.34;79.30
5691;BME280;2870;42.680;23.364;2023-06-05T06:54:20;95544.00;;;20.74;81.90
5691;BME280;2870;42.680;23.364;2023-06-05T06:56:48;95546.22;;;20.75;82.46
5691;BME280;2870;42.680;23.364;2023-06-05T06:59:15;95543.13;;;21.06;80.75
5691;BME280;2870;42.680;23.364;2023-06-05T07:01:43;95541.88;;;21.09;81.23
5691;BME280;2870;42.680;23.364;2023-06-05T07:04:12;95545.56;;;21.24;80.88
5691;BME280;2870;42.680;23.364;2023-06-05T07:06:43;95527.53;;;21.56;78.68
5691;BME280;2870;42.680;23.364;2023-06-05T07:09:10;95538.88;;;21.31;78.60
5691;BME280;2870;42.680;23.364;2023-06-05T07:11:37;95534.28;;;21.14;78.68
5691;BME280;2870;42.680;23.364;2023-06-05T07:14:04;95538.78;;;21.17;78.85
5691;BME280;2870;42.680;23.364;2023-06-05T07:16:31;95534.78;;;21.34;79.39
5691;BME280;2870;42.680;23.364;2023-06-05T07:18:58;95534.69;;;21.08;78.54
5691;BME280;2870;42.680;23.364;2023-06-05T07:21:26;95536.44;;;20.90;79.68
5691;BME280;2870;42.680;23.364;2023-06-05T07:23:55;95538.75;;;21.40;78.28
5691;BME280;2870;42.680;23.364;2023-06-05T07:26:22;95531.31;;;21.24;78.88
5691;BME280;2870;42.680;23.364;2023-06-05T07:28:49;95535.53;;;21.23;79.16
5691;BME280;2870;42.680;23.364;2023-06-05T07:31:16;95534.28;;;21.37;78.53
5691;BME280;2870;42.680;23.364;2023-06-05T07:33:43;95544.78;;;21.58;76.38
5691;BME280;2870;42.680;23.364;2023-06-05T07:36:10;95539.41;;;21.64;77.46
5691;BME280;2870;42.680;23.364;2023-06-05T07:38:37;95540.13;;;22.53;74.25
5691;BME280;2870;42.680;23.364;2023-06-05T07:41:10;95542.25;;;22.53;75.01
5691;BME280;2870;42.680;23.364;2023-06-05T07:43:37;95544.28;;;22.78;71.98
5691;BME280;2870;42.680;23.364;2023-06-05T07:46:05;95553.22;;;23.25;70.17
5691;BME280;2870;42.680;23.364;2023-06-05T07:48:34;95555.66;;;23.44;68.65
5691;BME280;2870;42.680;23.364;2023-06-05T07:51:01;95557.59;;;23.12;69.14
5691;BME280;2870;42.680;23.364;2023-06-05T07:53:28;95559.25;;;22.90;70.14
5691;BME280;2870;42.680;23.364;2023-06-05T07:55:55;95550.28;;;23.09;70.59
5691;BME280;2870;42.680;23.364;2023-06-05T07:58:23;95559.97;;;23.59;68.08
5691;BME280;2870;42.680;23.364;2023-06-05T08:00:53;95564.25;;;24.31;66.18
5691;BME280;2870;42.680;23.364;2023-06-05T08:03:19;95560.34;;;24.54;67.02
5691;BME280;2870;42.680;23.364;2023-06-05T08:05:47;95553.34;;;23.98;66.62
5691;BME280;2870;42.680;23.364;2023-06-05T08:08:14;95564.63;;;24.69;64.77
5691;BME280;2870;42.680;23.364;2023-06-05T08:10:41;95568.91;;;25.31;61.43
5691;BME280;2870;42.680;23.364;2023-06-05T08:13:08;95544.34;;;25.61;59.21
5691;BME280;2870;42.680;23.364;2023-06-05T08:15:37;95570.38;;;25.32;60.58
5691;BME280;2870;42.680;23.364;2023-06-05T08:18:04;95562.56;;;24.40;62.18
5691;BME280;2870;42.680;23.364;2023-06-05T08:20:31;95562.03;;;24.59;63.49
5691;BME280;2870;42.680;23.364;2023-06-05T08:22:58;95570.53;;;24.27;63.19
5691;BME280;2870;42.680;23.364;2023-06-05T08:25:25;95566.31;;;25.05;62.85
5691;BME280;2870;42.680;23.364;2023-06-05T08:27:52;95556.47;;;24.63;64.39
5691;BME280;2870;42.680;23.364;2023-06-05T08:30:19;95567.78;;;25.22;62.37
5691;BME280;2870;42.680;23.364;2023-06-05T08:32:47;95564.91;;;25.22;62.72
5691;BME280;2870;42.680;23.364;2023-06-05T08:35:14;95561.84;;;25.83;59.75
5691;BME280;2870;42.680;23.364;2023-06-05T08:37:42;95575.22;;;25.77;59.25
5691;BME280;2870;42.680;23.364;2023-06-05T08:40:10;95573.06;;;25.77;59.27
5691;BME280;2870;42.680;23.364;2023-06-05T08:42:38;95576.41;;;26.05;58.74
5691;BME280;2870;42.680;23.364;2023-06-05T08:45:07;95581.63;;;26.45;58.17
5691;BME280;2870;42.680;23.364;2023-06-05T08:47:36;95575.03;;;26.42;58.97
5691;BME280;2870;42.680;23.364;2023-06-05T08:50:06;95571.22;;;26.20;58.84
5691;BME280;2870;42.680;23.364;2023-06-05T08:52:34;95576.44;;;26.41;57.37
5691;BME280;2870;42.680;23.364;2023-06-05T08:55:04;95574.69;;;26.34;57.02
5691;BME280;2870;42.680;23.364;2023-06-05T08:57:31;95570.63;;;26.77;57.26
5691;BME280;2870;42.680;23.364;2023-06-05T08:59:59;95569.06;;;27.11;55.80
5691;BME280;2870;42.680;23.364;2023-06-05T09:02:26;95567.63;;;27.30;52.78
5691;BME280;2870;42.680;23.364;2023-06-05T09:04:53;95566.53;;;27.02;53.42
5691;BME280;2870;42.680;23.364;2023-06-05T09:07:21;95578.13;;;26.48;55.12
5691;BME280;2870;42.680;23.364;2023-06-05T09:09:48;95568.97;;;25.33;58.12
5691;BME280;2870;42.680;23.364;2023-06-05T09:12:15;95556.84;;;24.71;60.36
5691;BME280;2870;42.680;23.364;2023-06-05T09:14:43;95567.00;;;24.43;60.38
5691;BME280;2870;42.680;23.364;2023-06-05T09:17:12;95571.91;;;24.26;62.69
5691;BME280;2870;42.680;23.364;2023-06-05T09:19:40;95571.25;;;23.41;64.23
5691;BME280;2870;42.680;23.364;2023-06-05T09:22:08;95561.91;;;23.68;64.26
5691;BME280;2870;42.680;23.364;2023-06-05T09:24:38;95568.06;;;23.49;64.04
5691;BME280;2870;42.680;23.364;2023-06-05T09:27:07;95564.47;;;23.48;64.65
5691;BME280;2870;42.680;23.364;2023-06-05T09:29:35;95567.84;;;23.31;65.61
5691;BME280;2870;42.680;23.364;2023-06-05T09:32:04;95564.28;;;23.03;66.38
5691;BME280;2870;42.680;23.364;2023-06-05T09:34:33;95568.06;;;23.08;66.09
5691;BME280;2870;42.680;23.364;2023-06-05T09:37:01;95557.22;;;22.79;65.68
5691;BME280;2870;42.680;23.364;2023-06-05T09:39:30;95570.72;;;23.04;65.41
5691;BME280;2870;42.680;23.364;2023-06-05T09:41:59;95567.66;;;23.13;65.65
5691;BME280;2870;42.680;23.364;2023-06-05T09:44:27;95567.13;;;23.03;65.46
5691;BME280;2870;42.680;23.364;2023-06-05T09:46:56;95563.00;;;23.06;64.88
5691;BME280;2870;42.680;23.364;2023-06-05T09:49:28;95563.63;;;23.05;64.54
5691;BME280;2870;42.680;23.364;2023-06-05T09:51:56;95560.22;;;22.94;63.89
5691;BME280;2870;42.680;23.364;2023-06-05T09:54:26;95553.34;;;22.46;64.31
5691;BME280;2870;42.680;23.364;2023-06-05T09:56:58;95552.16;;;22.91;63.99
5691;BME280;2870;42.680;23.364;2023-06-05T09:59:28;95556.78;;;22.70;65.64
5691;BME280;2870;42.680;23.364;2023-06-05T10:01:58;95550.44;;;22.07;71.24
5691;BME280;2870;42.680;23.364;2023-06-05T10:04:28;95538.47;;;22.75;72.19
5691;BME280;2870;42.680;23.364;2023-06-05T10:06:59;95537.53;;;22.45;70.61
5691;BME280;2870;42.680;23.364;2023-06-05T10:09:28;95542.09;;;22.90;70.91
5691;BME280;2870;42.680;23.364;2023-06-05T10:11:58;95531.50;;;23.20;70.52
5691;BME280;2870;42.680;23.364;2023-06-05T10:14:25;95537.63;;;22.87;71.36
5691;BME280;2870;42.680;23.364;2023-06-05T10:16:53;95541.88;;;23.13;69.58
5691;BME280;2870;42.680;23.364;2023-06-05T10:19:21;95538.38;;;23.56;70.01
5691;BME280;2870;42.680;23.364;2023-06-05T10:21:50;95540.72;;;23.18;70.89
5691;BME280;2870;42.680;23.364;2023-06-05T10:24:20;95522.28;;;23.21;73.34
5691;BME280;2870;42.680;23.364;2023-06-05T10:27:03;95530.31;;;22.70;72.64
5691;BME280;2870;42.680;23.364;2023-06-05T10:32:43;95538.41;;;23.15;70.71
5691;BME280;2870;42.680;23.364;2023-06-05T10:35:24;95533.34;;;22.60;72.70
5691;BME280;2870;42.680;23.364;2023-06-05T10:38:05;95524.31;;;23.05;72.56
5691;BME280;2870;42.680;23.364;2023-06-05T10:40:37;95518.56;;;23.33;70.81
5691;BME280;2870;42.680;23.364;2023-06-05T10:43:25;95528.59;;;23.61;71.79
5691;BME280;2870;42.680;23.364;2023-06-05T10:45:53;95521.09;;;23.40;72.20
5691;BME280;2870;42.680;23.364;2023-06-05T10:48:20;95528.81;;;22.83;73.67
5691;BME280;2870;42.680;23.364;2023-06-05T10:50:47;95526.91;;;22.73;76.98
5691;BME280;2870;42.680;23.364;2023-06-05T10:53:45;95522.75;;;22.63;79.32
5691;BME280;2870;42.680;23.364;2023-06-05T10:59:14;95508.53;;;23.04;77.91
5691;BME280;2870;42.680;23.364;2023-06-05T11:01:43;95512.09;;;23.18;77.05
5691;BME280;2870;42.680;23.364;2023-06-05T11:04:10;95519.75;;;23.27;78.10
5691;BME280;2870;42.680;23.364;2023-06-05T11:06:37;95506.28;;;22.89;79.08
5691;BME280;2870;42.680;23.364;2023-06-05T11:09:08;95508.09;;;23.10;80.98
5691;BME280;2870;42.680;23.364;2023-06-05T11:11:55;95503.38;;;22.61;79.46
5691;BME280;2870;42.680;23.364;2023-06-05T11:14:24;95510.56;;;22.48;80.08
5691;BME280;2870;42.680;23.364;2023-06-05T11:16:51;95503.53;;;23.18;78.82
5691;BME280;2870;42.680;23.364;2023-06-05T11:19:37;95496.31;;;22.76;77.06
5691;BME280;2870;42.680;23.364;2023-06-05T11:22:05;95500.22;;;23.24;77.94
5691;BME280;2870;42.680;23.364;2023-06-05T11:24:34;95502.81;;;23.75;71.00
5691;BME280;2870;42.680;23.364;2023-06-05T11:27:02;95501.50;;;24.08;70.92
5691;BME280;2870;42.680;23.364;2023-06-05T11:29:31;95494.19;;;24.04;68.15
5691;BME280;2870;42.680;23.364;2023-06-05T11:31:58;95488.94;;;23.56;70.27
5691;BME280;2870;42.680;23.364;2023-06-05T11:34:26;95492.19;;;24.07;66.31
5691;BME280;2870;42.680;23.364;2023-06-05T11:36:55;95489.19;;;24.05;64.54
5691;BME280;2870;42.680;23.364;2023-06-05T11:39:23;95490.03;;;24.53;65.09
5691;BME280;2870;42.680;23.364;2023-06-05T11:41:55;95477.66;;;24.64;65.86
5691;BME280;2870;42.680;23.364;2023-06-05T11:44:33;95485.50;;;24.02;67.90
5691;BME280;2870;42.680;23.364;2023-06-05T11:47:01;95475.13;;;24.72;68.37
5691;BME280;2870;42.680;23.364;2023-06-05T11:49:28;95478.72;;;25.04;64.85
5691;BME280;2870;42.680;23.364;2023-06-05T11:51:56;95482.81;;;24.83;64.60
5691;BME280;2870;42.680;23.364;2023-06-05T11:54:24;95458.13;;;24.45;66.23
5691;BME280;2870;42.680;23.364;2023-06-05T11:56:56;95473.91;;;24.30;67.36
5691;BME280;2870;42.680;23.364;2023-06-05T11:59:23;95464.56;;;24.29;67.74
5691;BME280;2870;42.680;23.364;2023-06-05T12:01:52;95466.16;;;24.48;66.44
5691;BME280;2870;42.680;23.364;2023-06-05T12:04:19;95461.09;;;24.47;65.72
5691;BME280;2870;42.680;23.364;2023-06-05T12:06:47;95471.38;;;25.01;62.29
5691;BME280;2870;42.680;23.364;2023-06-05T12:09:14;95461.31;;;25.00;64.38
5691;BME280;2870;42.680;23.364;2023-06-05T12:11:42;95468.78;;;25.23;62.35
5691;BME280;2870;42.680;23.364;2023-06-05T12:14:10;95459.88;;;25.51;60.45
5691;BME280;2870;42.680;23.364;2023-06-05T12:16:38;95462.94;;;25.73;59.20
5691;BME280;2870;42.680;23.364;2023-06-05T12:19:12;95462.19;;;25.54;58.86
5691;BME280;2870;42.680;23.364;2023-06-05T12:21:39;95462.22;;;25.72;57.91
5691;BME280;2870;42.680;23.364;2023-06-05T12:24:06;95456.75;;;25.45;58.24
5691;BME280;2870;42.680;23.364;2023-06-05T12:26:50;95444.06;;;25.50;57.87
5691;BME280;2870;42.680;23.364;2023-06-05T12:29:19;95451.47;;;25.21;57.43
5691;BME280;2870;42.680;23.364;2023-06-05T12:31:47;95439.44;;;25.25;58.01
5691;BME280;2870;42.680;23.364;2023-06-05T12:34:15;95430.38;;;24.65;56.32
5691;BME280;2870;42.680;23.364;2023-06-05T12:36:43;95432.47;;;24.80;57.60
5691;BME280;2870;42.680;23.364;2023-06-05T12:39:11;95424.66;;;24.99;57.91
5691;BME280;2870;42.680;23.364;2023-06-05T12:41:38;95429.94;;;24.89;58.69
5691;BME280;2870;42.680;23.364;2023-06-05T12:44:05;95421.50;;;24.59;57.95
5691;BME280;2870;42.680;23.364;2023-06-05T12:46:34;95423.16;;;24.64;57.93
5691;BME280;2870;42.680;23.364;2023-06-05T12:49:01;95408.66;;;24.94;58.28
5691;BME280;2870;42.680;23.364;2023-06-05T12:51:30;95402.50;;;25.35;57.66
5691;BME280;2870;42.680;23.364;2023-06-05T12:53:57;95404.22;;;25.24;56.67
5691;BME280;2870;42.680;23.364;2023-06-05T12:56:24;95410.84;;;25.11;55.29
5691;BME280;2870;42.680;23.364;2023-06-05T12:58:53;95401.53;;;25.28;56.02
5691;BME280;2870;42.680;23.364;2023-06-05T13:01:21;95412.56;;;25.18;56.72
5691;BME280;2870;42.680;23.364;2023-06-05T13:03:48;95405.38;;;25.17;56.22
5691;BME280;2870;42.680;23.364;2023-06-05T13:06:15;95399.28;;;25.09;55.51
5691;BME280;2870;42.680;23.364;2023-06-05T13:08:43;95404.06;;;25.20;56.32
5691;BME280;2870;42.680;23.364;2023-06-05T13:11:11;95408.50;;;25.23;55.42
5691;BME280;2870;42.680;23.364;2023-06-05T13:13:38;95401.69;;;24.99;56.90
5691;BME280;2870;42.680;23.364;2023-06-05T13:16:06;95396.13;;;24.69;58.16
5691;BME280;2870;42.680;23.364;2023-06-05T13:18:34;95397.09;;;24.92;58.60